sensor_id;sensor_type;location;lat;lon;timestamp;pressure;altitude;pressure_sealevel;temperature;humidity
13422;BME280;6782;55.904;13.396;2023-06-10T00:00:59;101520.88;;;11.69;100.00
13422;BME280;6782;55.904;13.396;2023-06-10T00:03:46;101538.50;;;11.67;100.00
13422;BME280;6782;55.904;13.396;2023-06-10T00:06:35;101549.13;;;11.63;100.00
13422;BME280;6782;55.904;13.396;2023-06-10T00:09:23;101570.28;;;11.61;100.00
13422;BME280;6782;55.904;13.396;2023-06-10T00:12:10;101570.31;;;11.58;100.00
13422;BME280;6782;55.904;13.396;2023-06-10T00:14:57;101573.91;;;11.54;100.00
13422;BME280;6782;55.904;13.396;2023-06-10T00:17:44;101592.53;;;11.44;100.00
13422;BME280;6782;55.904;13.396;2023-06-10T00:20:31;101611.13;;;11.36;100.00
13422;BME280;6782;55.904;13.396;2023-06-10T00:23:23;101625.16;;;11.41;100.00
13422;BME280;6782;55.904;13.396;2023-06-10T00:26:10;101620.81;;;11.36;100.00
13422;BME280;6782;55.904;13.396;2023-06-10T00:28:57;101634.03;;;11.37;100.00
13422;BME280;6782;55.904;13.396;2023-06-10T00:31:45;101639.34;;;11.34;100.00
13422;BME280;6782;55.904;13.396;2023-06-10T00:34:33;101632.31;;;11.30;100.00
13422;BME280;6782;55.904;13.396;2023-06-10T00:37:21;101641.16;;;11.29;100.00
13422;BME280;6782;55.904;13.396;2023-06-10T00:40:11;101645.53;;;11.31;100.00
13422;BME280;6782;55.904;13.396;2023-06-10T00:42:58;101651.78;;;11.23;100.00
13422;BME280;6782;55.904;13.396;2023-06-10T00:45:45;101658.78;;;11.27;100.00
13422;BME280;6782;55.904;13.396;2023-06-10T00:48:33;101668.34;;;11.37;100.00
13422;BME280;6782;55.904;13.396;2023-06-10T00:51:21;101679.03;;;11.25;100.00
13422;BME280;6782;55.904;13.396;2023-06-10T00:54:09;101686.06;;;11.29;100.00
13422;BME280;6782;55.904;13.396;2023-06-10T00:57:01;101685.19;;;11.27;100.00
13422;BME280;6782;55.904;13.396;2023-06-10T00:59:48;101689.66;;;11.20;100.00
13422;BME280;6782;55.904;13.396;2023-06-10T01:02:36;101699.41;;;11.15;100.00
13422;BME280;6782;55.904;13.396;2023-06-10T01:05:24;101709.19;;;11.06;100.00
13422;BME280;6782;55.904;13.396;2023-06-10T01:08:18;101715.41;;;10.97;100.00
13422;BME280;6782;55.904;13.396;2023-06-10T01:11:15;101726.84;;;11.01;100.00
13422;BME280;6782;55.904;13.396;2023-06-10T01:14:07;101718.78;;;11.13;100.00
13422;BME280;6782;55.904;13.396;2023-06-10T01:16:56;101709.22;;;11.00;100.00
13422;BME280;6782;55.904;13.396;2023-06-10T01:19:43;101715.38;;;11.02;100.00
13422;BME280;6782;55.904;13.396;2023-06-10T01:22:32;101721.56;;;10.98;100.00
13422;BME280;6782;55.904;13.396;2023-06-10T01:25:22;101727.69;;;11.03;100.00
13422;BME280;6782;55.904;13.396;2023-06-10T01:28:17;101722.41;;;11.03;100.00
13422;BME280;6782;55.904;13.396;2023-06-10T01:31:10;101730.38;;;10.97;100.00
13422;BME280;6782;55.904;13.396;2023-06-10T01:34:01;101733.91;;;10.99;100.00
13422;BME280;6782;55.904;13.396;2023-06-10T01:36:50;101736.63;;;10.87;100.00
13422;BME280;6782;55.904;13.396;2023-06-10T01:39:39;101737.53;;;10.81;100.00
13422;BME280;6782;55.904;13.396;2023-06-10T01:42:28;101738.53;;;10.69;100.00
13422;BME280;6782;55.904;13.396;2023-06-10T01:45:15;101744.75;;;10.65;100.00
13422;BME280;6782;55.904;13.396;2023-06-10T01:48:02;101739.47;;;10.65;100.00
13422;BME280;6782;55.904;13.396;2023-06-10T01:50:50;101742.13;;;10.58;100.00
13422;BME280;6782;55.904;13.396;2023-06-10T01:53:37;101752.66;;;10.62;100.00
13422;BME280;6782;55.904;13.396;2023-06-10T01:56:26;101750.94;;;10.58;100.00
13422;BME280;6782;55.904;13.396;2023-06-10T01:59:13;101749.19;;;10.53;100.00
13422;BME280;6782;55.904;13.396;2023-06-10T02:02:01;101756.28;;;10.46;100.00
13422;BME280;6782;55.904;13.396;2023-06-10T02:04:48;101754.41;;;10.63;100.00
13422;BME280;6782;55.904;13.396;2023-06-10T02:07:36;101751.03;;;10.43;100.00
13422;BME280;6782;55.904;13.396;2023-06-10T02:10:23;101761.59;;;10.40;100.00
13422;BME280;6782;55.904;13.396;2023-06-10T02:13:13;101749.31;;;10.39;100.00
13422;BME280;6782;55.904;13.396;2023-06-10T02:16:00;101742.25;;;10.44;100.00
13422;BME280;6782;55.904;13.396;2023-06-10T02:18:48;101746.72;;;10.33;100.00
13422;BME280;6782;55.904;13.396;2023-06-10T02:21:35;101758.09;;;10.38;100.00
13422;BME280;6782;55.904;13.396;2023-06-10T02:24:22;101750.19;;;10.41;100.00
13422;BME280;6782;55.904;13.396;2023-06-10T02:27:09;101747.63;;;10.29;100.00
13422;BME280;6782;55.904;13.396;2023-06-10T02:29:58;101740.69;;;10.16;100.00
13422;BME280;6782;55.904;13.396;2023-06-10T02:32:45;101741.53;;;10.18;100.00
13422;BME280;6782;55.904;13.396;2023-06-10T02:35:34;101744.09;;;10.30;100.00
13422;BME280;6782;55.904;13.396;2023-06-10T02:38:21;101740.56;;;10.31;100.00
13422;BME280;6782;55.904;13.396;2023-06-10T02:41:08;101736.19;;;10.27;100.00
13422;BME280;6782;55.904;13.396;2023-06-10T02:43:55;101732.72;;;10.21;100.00
13422;BME280;6782;55.904;13.396;2023-06-10T02:46:45;101734.41;;;10.31;100.00
13422;BME280;6782;55.904;13.396;2023-06-10T02:49:32;101727.44;;;10.22;100.00
13422;BME280;6782;55.904;13.396;2023-06-10T02:52:19;101742.34;;;10.25;100.00
13422;BME280;6782;55.904;13.396;2023-06-10T02:55:07;101740.56;;;10.31;100.00
13422;BME280;6782;55.904;13.396;2023-06-10T02:57:54;101731.78;;;10.32;100.00
13422;BME280;6782;55.904;13.396;2023-06-10T03:00:41;101734.38;;;10.35;100.00
13422;BME280;6782;55.904;13.396;2023-06-10T03:03:30;101729.09;;;10.38;100.00
13422;BME280;6782;55.904;13.396;2023-06-10T03:06:19;101732.63;;;10.39;100.00
13422;BME280;6782;55.904;13.396;2023-06-10T03:09:06;101724.66;;;10.43;100.00
13422;BME280;6782;55.904;13.396;2023-06-10T03:11:54;101724.63;;;10.52;100.00
13422;BME280;6782;55.904;13.396;2023-06-10T03:14:41;101726.16;;;10.78;100.00
13422;BME280;6782;55.904;13.396;2023-06-10T03:17:28;101722.78;;;11.50;100.00
13422;BME280;6782;55.904;13.396;2023-06-10T03:20:18;101701.69;;;12.16;100.00
13422;BME280;6782;55.904;13.396;2023-06-10T03:23:07;101648.34;;;12.43;100.00
13422;BME280;6782;55.904;13.396;2023-06-10T03:25:55;101625.97;;;12.62;100.00
13422;BME280;6782;55.904;13.396;2023-06-10T03:28:42;101615.94;;;12.79;100.00
13422;BME280;6782;55.904;13.396;2023-06-10T03:31:29;101583.53;;;13.12;100.00
13422;BME280;6782;55.904;13.396;2023-06-10T03:34:17;101557.16;;;13.09;100.00
13422;BME280;6782;55.904;13.396;2023-06-10T03:37:07;101505.13;;;13.07;100.00
13422;BME280;6782;55.904;13.396;2023-06-10T03:39:54;101508.63;;;13.06;100.00
13422;BME280;6782;55.904;13.396;2023-06-10T03:42:42;101498.31;;;13.34;100.00
13422;BME280;6782;55.904;13.396;2023-06-10T03:45:29;101485.13;;;13.32;100.00
13422;BME280;6782;55.904;13.396;2023-06-10T03:48:17;101510.47;;;13.79;100.00
13422;BME280;6782;55.904;13.396;2023-06-10T03:51:05;101442.66;;;13.35;100.00
13422;BME280;6782;55.904;13.396;2023-06-10T03:53:54;101486.94;;;13.67;100.00
13422;BME280;6782;55.904;13.396;2023-06-10T03:56:41;101447.03;;;13.38;100.00
13422;BME280;6782;55.904;13.396;2023-06-10T03:59:29;101441.06;;;12.88;100.00
13422;BME280;6782;55.904;13.396;2023-06-10T04:02:16;101526.91;;;13.20;100.00
13422;BME280;6782;55.904;13.396;2023-06-10T04:05:03;101530.75;;;13.81;100.00
13422;BME280;6782;55.904;13.396;2023-06-10T04:07:52;101470.78;;;13.41;100.00
13422;BME280;6782;55.904;13.396;2023-06-10T04:10:41;101555.44;;;13.85;100.00
13422;BME280;6782;55.904;13.396;2023-06-10T04:13:28;101473.28;;;13.47;100.00
13422;BME280;6782;55.904;13.396;2023-06-10T04:16:16;101519.72;;;13.25;100.00
13422;BME280;6782;55.904;13.396;2023-06-10T04:19:03;101531.00;;;12.45;100.00
13422;BME280;6782;55.904;13.396;2023-06-10T04:21:51;101650.22;;;12.87;100.00
13422;BME280;6782;55.904;13.396;2023-06-10T04:24:38;101640.84;;;12.69;100.00
13422;BME280;6782;55.904;13.396;2023-06-10T04:27:28;101685.69;;;12.77;100.00
13422;BME280;6782;55.904;13.396;2023-06-10T04:30:16;101671.00;;;12.59;100.00
13422;BME280;6782;55.904;13.396;2023-06-10T04:33:03;101708.06;;;12.59;100.00
13422;BME280;6782;55.904;13.396;2023-06-10T04:35:53;101697.59;;;12.53;100.00
13422;BME280;6782;55.904;13.396;2023-06-10T04:38:41;101730.44;;;12.92;100.00
13422;BME280;6782;55.904;13.396;2023-06-10T04:41:28;101712.16;;;12.78;100.00
13422;BME280;6782;55.904;13.396;2023-06-10T04:44:17;101703.56;;;12.66;100.00
13422;BME280;6782;55.904;13.396;2023-06-10T04:47:05;101718.34;;;12.77;100.00
13422;BME280;6782;55.904;13.396;2023-06-10T04:49:53;101723.63;;;12.77;100.00
13422;BME280;6782;55.904;13.396;2023-06-10T04:52:40;101741.31;;;12.75;100.00
13422;BME280;6782;55.904;13.396;2023-06-10T04:55:28;101731.19;;;13.00;100.00
13422;BME280;6782;55.904;13.396;2023-06-10T04:58:15;101713.69;;;12.91;100.00
13422;BME280;6782;55.904;13.396;2023-06-10T05:01:04;101714.63;;;12.87;100.00
13422;BME280;6782;55.904;13.396;2023-06-10T05:03:51;101749.19;;;13.32;100.00
13422;BME280;6782;55.904;13.396;2023-06-10T05:06:39;101703.53;;;13.17;100.00
13422;BME280;6782;55.904;13.396;2023-06-10T05:09:26;101711.31;;;13.27;100.00
13422;BME280;6782;55.904;13.396;2023-06-10T05:12:13;101715.47;;;13.40;100.00
13422;BME280;6782;55.904;13.396;2023-06-10T05:15:00;101700.47;;;13.39;100.00
13422;BME280;6782;55.904;13.396;2023-06-10T05:17:49;101721.75;;;13.77;100.00
13422;BME280;6782;55.904;13.396;2023-06-10T05:20:36;101692.44;;;13.85;100.00
13422;BME280;6782;55.904;13.396;2023-06-10T05:23:23;101657.25;;;13.76;100.00
13422;BME280;6782;55.904;13.396;2023-06-10T05:26:10;101671.81;;;13.97;100.00
13422;BME280;6782;55.904;13.396;2023-06-10T05:28:57;101636.72;;;14.23;100.00
13422;BME280;6782;55.904;13.396;2023-06-10T05:31:45;101646.91;;;14.43;100.00
13422;BME280;6782;55.904;13.396;2023-06-10T05:34:34;101588.59;;;14.38;100.00
13422;BME280;6782;55.904;13.396;2023-06-10T05:37:21;101533.44;;;14.15;100.00
13422;BME280;6782;55.904;13.396;2023-06-10T05:40:09;101575.25;;;14.43;100.00
13422;BME280;6782;55.904;13.396;2023-06-10T05:42:57;101564.69;;;14.39;100.00
13422;BME280;6782;55.904;13.396;2023-06-10T05:45:44;101531.19;;;14.35;100.00
13422;BME280;6782;55.904;13.396;2023-06-10T05:48:31;101538.25;;;14.69;100.00
13422;BME280;6782;55.904;13.396;2023-06-10T05:51:20;101536.91;;;14.85;100.00
13422;BME280;6782;55.904;13.396;2023-06-10T05:54:07;101461.34;;;14.66;100.00
13422;BME280;6782;55.904;13.396;2023-06-10T05:56:54;101476.75;;;14.84;100.00
13422;BME280;6782;55.904;13.396;2023-06-10T05:59:42;101439.06;;;14.71;100.00
13422;BME280;6782;55.904;13.396;2023-06-10T06:02:29;101474.72;;;14.92;100.00
13422;BME280;6782;55.904;13.396;2023-06-10T06:05:16;101398.88;;;14.82;100.00
13422;BME280;6782;55.904;13.396;2023-06-10T06:08:05;101412.63;;;14.96;100.00
13422;BME280;6782;55.904;13.396;2023-06-10T06:10:53;101411.38;;;15.07;100.00
13422;BME280;6782;55.904;13.396;2023-06-10T06:13:40;101396.13;;;15.14;100.00
13422;BME280;6782;55.904;13.396;2023-06-10T06:16:27;101341.03;;;15.19;100.00
13422;BME280;6782;55.904;13.396;2023-06-10T06:19:14;101306.53;;;15.18;100.00
13422;BME280;6782;55.904;13.396;2023-06-10T06:22:02;101307.72;;;15.35;100.00
13422;BME280;6782;55.904;13.396;2023-06-10T06:24:50;101252.56;;;15.42;100.00
13422;BME280;6782;55.904;13.396;2023-06-10T06:27:38;101241.63;;;15.51;100.00
13422;BME280;6782;55.904;13.396;2023-06-10T06:30:25;101210.72;;;15.72;100.00
13422;BME280;6782;55.904;13.396;2023-06-10T06:33:12;101152.06;;;15.98;100.00
13422;BME280;6782;55.904;13.396;2023-06-10T06:36:00;101016.78;;;15.89;100.00
13422;BME280;6782;55.904;13.396;2023-06-10T06:38:47;101030.81;;;16.14;100.00
13422;BME280;6782;55.904;13.396;2023-06-10T06:41:35;101002.97;;;16.01;100.00
13422;BME280;6782;55.904;13.396;2023-06-10T06:44:22;101088.22;;;16.41;100.00
13422;BME280;6782;55.904;13.396;2023-06-10T06:47:10;101001.56;;;16.34;100.00
13422;BME280;6782;55.904;13.396;2023-06-10T06:49:57;101035.16;;;16.58;100.00
13422;BME280;6782;55.904;13.396;2023-06-10T06:52:44;100898.50;;;16.76;100.00
13422;BME280;6782;55.904;13.396;2023-06-10T06:55:32;100836.75;;;16.68;100.00
13422;BME280;6782;55.904;13.396;2023-06-10T06:58:20;100935.63;;;16.79;100.00
13422;BME280;6782;55.904;13.396;2023-06-10T07:01:07;101211.19;;;16.94;100.00
13422;BME280;6782;55.904;13.396;2023-06-10T07:03:55;101206.94;;;16.68;100.00
13422;BME280;6782;55.904;13.396;2023-06-10T07:06:43;101313.31;;;16.95;100.00
13422;BME280;6782;55.904;13.396;2023-06-10T07:09:30;101290.38;;;16.90;100.00
13422;BME280;6782;55.904;13.396;2023-06-10T07:12:17;101294.16;;;17.07;100.00
13422;BME280;6782;55.904;13.396;2023-06-10T07:15:10;101326.81;;;17.12;100.00
13422;BME280;6782;55.904;13.396;2023-06-10T07:17:57;101331.63;;;17.24;100.00
13422;BME280;6782;55.904;13.396;2023-06-10T07:20:44;101307.25;;;17.13;100.00
13422;BME280;6782;55.904;13.396;2023-06-10T07:23:32;101354.44;;;17.31;100.00
13422;BME280;6782;55.904;13.396;2023-06-10T07:26:19;101400.06;;;17.45;100.00
13422;BME280;6782;55.904;13.396;2023-06-10T07:29:06;101300.59;;;17.43;99.12
13422;BME280;6782;55.904;13.396;2023-06-10T07:31:55;101359.13;;;17.68;98.08
13422;BME280;6782;55.904;13.396;2023-06-10T07:34:43;101313.06;;;17.42;95.21
13422;BME280;6782;55.904;13.396;2023-06-10T07:37:30;101356.41;;;17.69;94.91
13422;BME280;6782;55.904;13.396;2023-06-10T07:40:17;101380.69;;;17.83;94.37
13422;BME280;6782;55.904;13.396;2023-06-10T07:43:05;101368.88;;;18.09;93.71
13422;BME280;6782;55.904;13.396;2023-06-10T07:45:52;101304.59;;;18.13;90.27
13422;BME280;6782;55.904;13.396;2023-06-10T07:48:41;101280.03;;;18.05;87.98
13422;BME280;6782;55.904;13.396;2023-06-10T07:51:28;101332.19;;;18.33;88.14
13422;BME280;6782;55.904;13.396;2023-06-10T07:54:15;101288.44;;;18.17;84.76
13422;BME280;6782;55.904;13.396;2023-06-10T07:57:03;101295.22;;;18.24;84.12
13422;BME280;6782;55.904;13.396;2023-06-10T07:59:50;101267.88;;;18.19;82.08
13422;BME280;6782;55.904;13.396;2023-06-10T08:02:37;101323.88;;;18.59;82.83
13422;BME280;6782;55.904;13.396;2023-06-10T08:05:27;101286.75;;;18.53;80.71
13422;BME280;6782;55.904;13.396;2023-06-10T08:08:14;101293.59;;;18.77;80.20
13422;BME280;6782;55.904;13.396;2023-06-10T08:11:02;101310.97;;;18.86;79.91
13422;BME280;6782;55.904;13.396;2023-06-10T08:13:49;101264.22;;;18.77;78.69
13422;BME280;6782;55.904;13.396;2023-06-10T08:16:36;101352.75;;;19.24;80.35
13422;BME280;6782;55.904;13.396;2023-06-10T08:19:23;101352.50;;;19.28;80.38
13422;BME280;6782;55.904;13.396;2023-06-10T08:22:12;101284.13;;;19.42;78.34
13422;BME280;6782;55.904;13.396;2023-06-10T08:25:00;101337.78;;;19.39;79.26
13422;BME280;6782;55.904;13.396;2023-06-10T08:27:48;101345.53;;;19.62;78.97
13422;BME280;6782;55.904;13.396;2023-06-10T08:30:36;101325.69;;;19.66;78.16
13422;BME280;6782;55.904;13.396;2023-06-10T08:33:23;101284.91;;;19.61;76.69
13422;BME280;6782;55.904;13.396;2023-06-10T08:36:10;101230.16;;;19.51;74.54
13422;BME280;6782;55.904;13.396;2023-06-10T08:38:59;101221.31;;;19.31;73.92
13422;BME280;6782;55.904;13.396;2023-06-10T08:41:55;101303.00;;;19.56;74.89
13422;BME280;6782;55.904;13.396;2023-06-10T08:44:46;101278.38;;;19.66;74.27
13422;BME280;6782;55.904;13.396;2023-06-10T08:47:35;101228.41;;;19.50;73.04
13422;BME280;6782;55.904;13.396;2023-06-10T08:50:25;101261.47;;;19.49;73.32
13422;BME280;6782;55.904;13.396;2023-06-10T08:53:16;101353.78;;;19.91;75.17
13422;BME280;6782;55.904;13.396;2023-06-10T08:56:06;101309.53;;;19.84;74.61
13422;BME280;6782;55.904;13.396;2023-06-10T08:58:55;101262.22;;;19.68;73.47
13422;BME280;6782;55.904;13.396;2023-06-10T09:01:43;101230.25;;;19.65;72.18
13422;BME280;6782;55.904;13.396;2023-06-10T09:04:31;101253.88;;;20.07;72.20
13422;BME280;6782;55.904;13.396;2023-06-10T09:07:19;101208.22;;;19.77;70.28
13422;BME280;6782;55.904;13.396;2023-06-10T09:10:08;101258.09;;;19.95;70.76
13422;BME280;6782;55.904;13.396;2023-06-10T09:12:57;101251.91;;;20.10;70.11
13422;BME280;6782;55.904;13.396;2023-06-10T09:15:44;101220.84;;;20.23;69.43
13422;BME280;6782;55.904;13.396;2023-06-10T09:18:31;101221.38;;;20.30;68.77
13422;BME280;6782;55.904;13.396;2023-06-10T09:21:20;101215.84;;;20.48;67.42
13422;BME280;6782;55.904;13.396;2023-06-10T09:24:08;101206.16;;;20.62;67.06
13422;BME280;6782;55.904;13.396;2023-06-10T09:27:02;101200.63;;;20.65;67.02
13422;BME280;6782;55.904;13.396;2023-06-10T09:29:54;101208.22;;;20.56;66.83
13422;BME280;6782;55.904;13.396;2023-06-10T09:32:43;101227.22;;;20.21;66.99
13422;BME280;6782;55.904;13.396;2023-06-10T09:35:30;101226.81;;;20.28;66.90
13422;BME280;6782;55.904;13.396;2023-06-10T09:38:20;101289.69;;;20.70;67.71
13422;BME280;6782;55.904;13.396;2023-06-10T09:41:08;101171.53;;;20.73;64.71
13422;BME280;6782;55.904;13.396;2023-06-10T09:43:55;101196.22;;;20.93;62.97
13422;BME280;6782;55.904;13.396;2023-06-10T09:46:45;101237.59;;;20.74;61.07
13422;BME280;6782;55.904;13.396;2023-06-10T09:49:33;101213.94;;;20.50;60.11
13422;BME280;6782;55.904;13.396;2023-06-10T09:52:26;101244.88;;;20.56;60.20
13422;BME280;6782;55.904;13.396;2023-06-10T09:55:13;101237.78;;;20.39;60.45
13422;BME280;6782;55.904;13.396;2023-06-10T09:58:01;101283.06;;;20.59;60.80
13422;BME280;6782;55.904;13.396;2023-06-10T10:00:52;101319.41;;;20.81;61.86
13422;BME280;6782;55.904;13.396;2023-06-10T10:03:45;101352.25;;;20.53;63.02
13422;BME280;6782;55.904;13.396;2023-06-10T10:06:34;101371.44;;;20.45;63.40
13422;BME280;6782;55.904;13.396;2023-06-10T10:09:22;101395.66;;;20.59;64.46
13422;BME280;6782;55.904;13.396;2023-06-10T10:12:10;101466.00;;;20.47;66.95
13422;BME280;6782;55.904;13.396;2023-06-10T10:14:58;101481.41;;;20.44;68.49
13422;BME280;6782;55.904;13.396;2023-06-10T10:17:49;101539.81;;;20.87;69.68
13422;BME280;6782;55.904;13.396;2023-06-10T10:20:46;101471.84;;;21.04;68.39
13422;BME280;6782;55.904;13.396;2023-06-10T10:23:38;101509.31;;;21.38;69.16
13422;BME280;6782;55.904;13.396;2023-06-10T10:26:27;101457.56;;;21.03;69.08
13422;BME280;6782;55.904;13.396;2023-06-10T10:29:20;101470.88;;;21.22;68.74
13422;BME280;6782;55.904;13.396;2023-06-10T10:32:12;101514.56;;;21.24;69.69
13422;BME280;6782;55.904;13.396;2023-06-10T10:35:05;101448.34;;;21.09;68.08
13422;BME280;6782;55.904;13.396;2023-06-10T10:37:56;101463.59;;;21.24;68.27
13422;BME280;6782;55.904;13.396;2023-06-10T10:40:44;101495.63;;;21.43;68.44
13422;BME280;6782;55.904;13.396;2023-06-10T10:43:33;101500.28;;;21.39;68.94
13422;BME280;6782;55.904;13.396;2023-06-10T10:46:20;101430.63;;;21.22;67.30
13422;BME280;6782;55.904;13.396;2023-06-10T10:49:09;101405.59;;;21.06;66.62
13422;BME280;6782;55.904;13.396;2023-06-10T10:51:58;101419.63;;;21.11;66.64
13422;BME280;6782;55.904;13.396;2023-06-10T10:54:47;101466.44;;;21.52;67.03
13422;BME280;6782;55.904;13.396;2023-06-10T10:57:38;101414.63;;;21.36;65.50
13422;BME280;6782;55.904;13.396;2023-06-10T11:00:30;101393.66;;;21.11;64.18
13422;BME280;6782;55.904;13.396;2023-06-10T11:03:17;101415.25;;;21.55;63.56
13422;BME280;6782;55.904;13.396;2023-06-10T11:06:12;101297.47;;;21.35;60.94
13422;BME280;6782;55.904;13.396;2023-06-10T11:08:59;101419.00;;;21.98;62.71
13422;BME280;6782;55.904;13.396;2023-06-10T11:11:50;101303.28;;;21.57;60.19
13422;BME280;6782;55.904;13.396;2023-06-10T11:14:53;101253.31;;;21.55;58.89
13422;BME280;6782;55.904;13.396;2023-06-10T11:18:12;101343.69;;;21.40;60.05
13422;BME280;6782;55.904;13.396;2023-06-10T11:21:01;101354.84;;;21.48;59.73
13422;BME280;6782;55.904;13.396;2023-06-10T11:23:50;101330.16;;;21.12;60.16
13422;BME280;6782;55.904;13.396;2023-06-10T11:26:44;101462.88;;;21.67;62.56
13422;BME280;6782;55.904;13.396;2023-06-10T11:29:32;101419.13;;;21.20;61.79
13422;BME280;6782;55.904;13.396;2023-06-10T11:32:20;101478.47;;;21.61;63.08
13422;BME280;6782;55.904;13.396;2023-06-10T11:35:08;101430.16;;;21.61;61.70
13422;BME280;6782;55.904;13.396;2023-06-10T11:37:55;101480.00;;;21.96;62.66
13422;BME280;6782;55.904;13.396;2023-06-10T11:40:47;101442.28;;;21.52;62.26
13422;BME280;6782;55.904;13.396;2023-06-10T11:43:35;101511.19;;;21.99;63.58
13422;BME280;6782;55.904;13.396;2023-06-10T11:46:24;101501.00;;;21.90;63.77
13422;BME280;6782;55.904;13.396;2023-06-10T11:49:15;101506.09;;;22.24;63.79
13422;BME280;6782;55.904;13.396;2023-06-10T11:52:04;101428.09;;;22.25;62.01
13422;BME280;6782;55.904;13.396;2023-06-10T11:54:53;101393.59;;;22.04;60.85
13422;BME280;6782;55.904;13.396;2023-06-10T11:57:41;101417.81;;;21.72;61.49
13422;BME280;6782;55.904;13.396;2023-06-10T12:00:28;101404.53;;;21.55;61.11
13422;BME280;6782;55.904;13.396;2023-06-10T12:03:17;101416.84;;;21.44;61.46
13422;BME280;6782;55.904;13.396;2023-06-10T12:06:06;101442.09;;;21.87;61.76
13422;BME280;6782;55.904;13.396;2023-06-10T12:08:54;101387.63;;;21.69;60.20
13422;BME280;6782;55.904;13.396;2023-06-10T12:11:42;101433.38;;;22.55;60.16
13422;BME280;6782;55.904;13.396;2023-06-10T12:14:55;101331.59;;;22.07;58.55
13422;BME280;6782;55.904;13.396;2023-06-10T12:17:43;101382.06;;;21.88;59.47
13422;BME280;6782;55.904;13.396;2023-06-10T12:20:35;101446.31;;;22.64;59.78
13422;BME280;6782;55.904;13.396;2023-06-10T12:23:23;101330.38;;;22.69;56.95
13422;BME280;6782;55.904;13.396;2023-06-10T12:26:11;101341.00;;;22.84;56.97
13422;BME280;6782;55.904;13.396;2023-06-10T12:28:58;101317.63;;;22.44;56.58
13422;BME280;6782;55.904;13.396;2023-06-10T12:31:53;101324.41;;;22.50;56.76
13422;BME280;6782;55.904;13.396;2023-06-10T12:34:40;101353.91;;;22.51;56.99
13422;BME280;6782;55.904;13.396;2023-06-10T12:37:29;101353.13;;;22.21;55.14
13422;BME280;6782;55.904;13.396;2023-06-10T12:40:25;101360.06;;;22.67;54.40
13422;BME280;6782;55.904;13.396;2023-06-10T12:43:13;101340.06;;;22.71;53.21
13422;BME280;6782;55.904;13.396;2023-06-10T12:46:09;101341.69;;;22.45;52.33
13422;BME280;6782;55.904;13.396;2023-06-10T12:48:58;101388.84;;;22.65;52.62
13422;BME280;6782;55.904;13.396;2023-06-10T12:51:45;101370.31;;;22.61;51.88
13422;BME280;6782;55.904;13.396;2023-06-10T12:54:33;101463.41;;;22.77;52.73
13422;BME280;6782;55.904;13.396;2023-06-10T12:57:21;101473.38;;;22.75;52.62
13422;BME280;6782;55.904;13.396;2023-06-10T13:00:09;101519.41;;;22.99;52.67
13422;BME280;6782;55.904;13.396;2023-06-10T13:03:00;101524.03;;;22.97;52.62
13422;BME280;6782;55.904;13.396;2023-06-10T13:05:48;101462.78;;;22.58;51.22
13422;BME280;6782;55.904;13.396;2023-06-10T13:08:35;101462.78;;;22.58;50.47
13422;BME280;6782;55.904;13.396;2023-06-10T13:11:24;101481.03;;;22.53;50.78
13422;BME280;6782;55.904;13.396;2023-06-10T13:14:11;101450.97;;;22.61;49.10
13422;BME280;6782;55.904;13.396;2023-06-10T13:16:59;101618.03;;;22.55;47.48
13422;BME280;6782;55.904;13.396;2023-06-10T13:19:46;101634.06;;;22.26;47.40
13422;BME280;6782;55.904;13.396;2023-06-10T13:22:34;101668.59;;;22.34;48.19
13422;BME280;6782;55.904;13.396;2023-06-10T13:25:22;101633.38;;;22.23;46.66
13422;BME280;6782;55.904;13.396;2023-06-10T13:28:11;101640.66;;;22.21;46.57
13422;BME280;6782;55.904;13.396;2023-06-10T13:30:58;101673.41;;;22.43;46.98
13422;BME280;6782;55.904;13.396;2023-06-10T13:33:45;101683.84;;;22.33;47.74
13422;BME280;6782;55.904;13.396;2023-06-10T13:36:33;101691.44;;;22.72;47.68
13422;BME280;6782;55.904;13.396;2023-06-10T13:39:20;101672.88;;;22.52;47.49
13422;BME280;6782;55.904;13.396;2023-06-10T13:42:07;101648.41;;;21.78;47.04
13422;BME280;6782;55.904;13.396;2023-06-10T13:44:56;101644.00;;;21.62;46.94
13422;BME280;6782;55.904;13.396;2023-06-10T13:47:43;101664.91;;;21.88;47.00
13422;BME280;6782;55.904;13.396;2023-06-10T13:50:30;101653.13;;;21.91;45.90
13422;BME280;6782;55.904;13.396;2023-06-10T13:53:17;101757.22;;;21.87;46.60
13422;BME280;6782;55.904;13.396;2023-06-10T13:56:04;101766.34;;;22.00;46.67
13422;BME280;6782;55.904;13.396;2023-06-10T13:58:52;101742.75;;;21.90;46.23
13422;BME280;6782;55.904;13.396;2023-06-10T14:01:42;101748.50;;;21.65;47.05
13422;BME280;6782;55.904;13.396;2023-06-10T14:04:29;101763.81;;;21.30;47.90
13422;BME280;6782;55.904;13.396;2023-06-10T14:07:16;101734.59;;;21.24;47.29
13422;BME280;6782;55.904;13.396;2023-06-10T14:10:04;101794.56;;;21.92;48.61
13422;BME280;6782;55.904;13.396;2023-06-10T14:12:51;101756.84;;;21.43;47.85
13422;BME280;6782;55.904;13.396;2023-06-10T14:15:39;101783.81;;;21.92;48.24
13422;BME280;6782;55.904;13.396;2023-06-10T14:18:28;101747.13;;;22.08;46.67
13422;BME280;6782;55.904;13.396;2023-06-10T14:21:15;101736.00;;;21.48;45.91
13422;BME280;6782;55.904;13.396;2023-06-10T14:24:03;101752.19;;;21.30;47.03
13422;BME280;6782;55.904;13.396;2023-06-10T14:26:50;101742.03;;;21.36;45.96
13422;BME280;6782;55.904;13.396;2023-06-10T14:29:37;101715.88;;;21.40;45.30
13422;BME280;6782;55.904;13.396;2023-06-10T14:32:24;101748.66;;;21.46;46.16
13422;BME280;6782;55.904;13.396;2023-06-10T14:35:13;101721.97;;;21.43;45.78